Kline, Colorado
Current Conditions -  °F | °C
As of 2:53 PM on Monday 22 Dec 2014 (Local Time) from KDRO Reporting Station
Broken Clouds Broken Clouds  
Wind Chill: 34°   Ceiling: 10000
Heat Index: 43°   Visibility: 10mi
Dew Point: 27°   Wind: 24mph
Humidity: 53%   Direction: 290°WNW
Pressure: 29.69"   Gusts: 37mph
Location:  37.1547°N, 108.155°W
Report Text: KDRO 222153Z AUTO 29021G32KT 10SM FEW050 SCT070 BKN100 06/M03 A2969 RMK AO2 PK WND 29036/2115 RAE2056 SLP031 P0000 T00611028
Loading
Personal Weather Stations






























Interactive Weather Map New forecast layout! Learn more

10-Day Weather Forecast

Advertisements
Track Severe Weather on mobile